Time;durP1;ratioP1;P1;durP2;ratioP2;P2;SDS_P1;SDS_P2;PMS_P1;PMS_P2;Temp;Humidity;BMP_temperature;BMP_pressure;BME280_temperature;BME280_humidity;BME280_pressure;Samples;Min_cycle;Max_cycle;Signal;HPM_P1;HPM_P2
2022/12/03 00:00:46;;;;;;;12.15;8.07;;;;;;;5.87;91.19;94060.69;5088240;28;20032;-34
2022/12/03 00:03:11;;;;;;;14.75;9.98;;;;;;;5.87;91.33;94055.19;5082185;28;20020;-35
2022/12/03 00:05:37;;;;;;;11.88;8.48;;;;;;;5.88;91.53;94062.19;5079434;28;20506;-35
2022/12/03 00:08:02;;;;;;;14.70;7.72;;;;;;;5.91;91.27;94059.16;5081743;28;20491;-34
2022/12/03 00:10:28;;;;;;;10.60;8.05;;;;;;;5.90;91.05;94065.91;5082966;28;20489;-35
2022/12/03 00:12:53;;;;;;;16.55;9.35;;;;;;;5.88;91.45;94070.41;5074458;28;20024;-35
2022/12/03 00:15:19;;;;;;;11.02;7.60;;;;;;;5.96;91.21;94068.63;5085037;28;20020;-35
2022/12/03 00:17:44;;;;;;;15.75;9.43;;;;;;;6.00;90.67;94069.09;5080930;28;20024;-34
2022/12/03 00:20:17;;;;;;;14.82;7.97;;;;;;;6.02;90.24;94075.59;5084741;28;20036;-34
2022/12/03 00:22:42;;;;;;;12.73;8.20;;;;;;;6.00;90.24;94078.09;5084582;28;20027;-35
2022/12/03 00:25:08;;;;;;;11.20;8.30;;;;;;;6.06;89.96;94067.84;5080550;28;20016;-35
2022/12/03 00:27:33;;;;;;;12.63;7.78;;;;;;;6.03;89.92;94074.34;5085205;28;20500;-35
2022/12/03 00:29:59;;;;;;;16.92;8.18;;;;;;;5.95;90.15;94072.63;5091665;28;20024;-35
2022/12/03 00:32:24;;;;;;;14.25;8.93;;;;;;;6.03;90.28;94073.59;5090505;28;20035;-34
2022/12/03 00:34:50;;;;;;;11.90;8.18;;;;;;;6.04;89.98;94080.59;5090630;28;20020;-34
2022/12/03 00:37:15;;;;;;;20.75;9.20;;;;;;;5.92;90.46;94079.88;5090561;28;20024;-34
2022/12/03 00:39:41;;;;;;;16.05;8.63;;;;;;;5.80;90.80;94088.59;5091261;28;20507;-34
2022/12/03 00:42:06;;;;;;;15.27;9.18;;;;;;;5.88;90.93;94078.63;5090570;28;20040;-34
2022/12/03 00:44:32;;;;;;;18.63;8.70;;;;;;;5.80;90.72;94086.59;5088391;28;20462;-34
2022/12/03 00:46:57;;;;;;;13.77;7.70;;;;;;;5.87;90.51;94082.59;5089515;28;20450;-34
2022/12/03 00:49:23;;;;;;;13.65;8.60;;;;;;;5.73;90.79;94081.63;5080283;28;20058;-34
2022/12/03 00:51:48;;;;;;;13.02;8.07;;;;;;;5.80;90.85;94086.59;5078719;28;20028;-34
2022/12/03 00:54:14;;;;;;;10.43;7.38;;;;;;;5.81;90.69;94090.81;5083147;28;20156;-34
2022/12/03 00:56:39;;;;;;;14.88;8.70;;;;;;;5.82;90.47;94097.06;5080052;28;20040;-34
2022/12/03 00:59:04;;;;;;;11.60;7.82;;;;;;;5.77;90.32;94098.56;5062681;28;20051;-34
2022/12/03 01:01:30;;;;;;;12.45;7.50;;;;;;;5.75;90.72;94098.31;5089890;28;20412;-34
2022/12/03 01:03:55;;;;;;;12.32;8.32;;;;;;;5.71;90.95;94091.59;5082671;28;20024;-34
2022/12/03 01:06:21;;;;;;;10.18;6.68;;;;;;;5.76;90.75;94099.78;5086266;28;20028;-34
2022/12/03 01:08:46;;;;;;;14.23;7.95;;;;;;;5.72;90.93;94099.31;5087476;28;20038;-34
2022/12/03 01:13:55;;;;;;;12.88;7.57;;;;;;;5.68;90.45;94104.31;5088579;28;20031;-34
2022/12/03 01:16:21;;;;;;;11.77;7.88;;;;;;;5.61;90.97;94113.03;5087177;28;20408;-34
2022/12/03 01:18:46;;;;;;;13.38;8.23;;;;;;;5.71;90.98;94099.81;5078730;28;20460;-34
2022/12/03 01:21:12;;;;;;;9.98;6.40;;;;;;;5.69;90.90;94107.78;5085622;28;20020;-34
2022/12/03 01:23:37;;;;;;;11.80;7.45;;;;;;;5.69;90.91;94111.28;5063515;28;20024;-35
2022/12/03 01:26:03;;;;;;;12.15;7.68;;;;;;;5.74;90.52;94110.50;5088933;28;20023;-34
2022/12/03 01:28:28;;;;;;;11.00;7.15;;;;;;;5.78;89.68;94110.28;5089199;28;20472;-34
2022/12/03 01:33:38;;;;;;;11.43;7.65;;;;;;;5.69;90.39;94114.03;5089364;28;20514;-34
2022/12/03 01:36:03;;;;;;;14.88;8.13;;;;;;;5.59;90.88;94112.78;5087531;28;20016;-34
2022/12/03 01:38:29;;;;;;;10.77;7.68;;;;;;;5.64;90.76;94114.78;5087976;28;20069;-34
2022/12/03 01:40:54;;;;;;;10.82;6.90;;;;;;;5.73;90.52;94116.50;5082021;28;20028;-34
2022/12/03 01:43:20;;;;;;;12.18;7.75;;;;;;;5.77;89.71;94122.47;5078437;28;20024;-34
2022/12/03 01:45:45;;;;;;;16.08;9.38;;;;;;;5.79;89.80;94120.72;5086153;28;20118;-34
2022/12/03 01:48:14;;;;;;;16.75;9.52;;;;;;;5.79;89.98;94131.69;5079828;28;20515;-34
2022/12/03 01:50:39;;;;;;;12.05;8.20;;;;;;;5.76;89.91;94126.47;5084138;28;20086;-34
2022/12/03 01:53:05;;;;;;;14.68;9.00;;;;;;;5.81;89.93;94129.19;5087649;28;20044;-35
2022/12/03 01:55:30;;;;;;;17.02;10.00;;;;;;;5.82;89.99;94127.94;5084794;28;20028;-35
2022/12/03 01:57:58;;;;;;;17.15;9.55;;;;;;;5.71;90.03;94136.19;5088143;28;20039;-35
2022/12/03 02:00:28;;;;;;;17.77;10.43;;;;;;;5.80;90.32;94141.41;5062780;28;20020;-35
2022/12/03 02:02:58;;;;;;;15.27;9.40;;;;;;;5.73;90.09;94136.44;5084880;28;20020;-35
2022/12/03 02:05:26;;;;;;;16.48;9.57;;;;;;;5.57;90.93;94133.69;5085347;28;20484;-35
2022/12/03 02:07:52;;;;;;;17.65;9.85;;;;;;;5.56;91.23;94132.97;5083547;28;20021;-35
2022/12/03 02:10:22;;;;;;;14.30;9.35;;;;;;;5.43;91.69;94132.72;5078882;28;20017;-35
2022/12/03 02:12:55;;;;;;;15.40;9.82;;;;;;;5.47;91.93;94130.47;5069204;28;20108;-44
2022/12/03 02:15:20;;;;;;;16.35;10.00;;;;;;;5.63;91.26;94132.44;5081624;28;20047;-34
2022/12/03 02:17:46;;;;;;;14.75;8.70;;;;;;;5.47;91.45;94127.75;5077978;28;20020;-35
2022/12/03 02:20:12;;;;;;;16.33;10.25;;;;;;;5.35;91.76;94121.50;5080609;28;20045;-35
2022/12/03 02:23:05;;;;;;;15.82;9.82;;;;;;;5.00;92.33;94088.41;5066727;28;20489;-35
2022/12/03 02:25:33;;;;;;;13.82;8.85;;;;;;;5.30;92.43;94127.00;5060507;28;20043;-35
2022/12/03 02:28:00;;;;;;;14.10;8.88;;;;;;;5.26;92.75;94124.50;5083678;28;20020;-35
2022/12/03 02:30:27;;;;;;;15.88;9.65;;;;;;;5.29;92.71;94122.75;5083944;28;20115;-34
2022/12/03 02:32:53;;;;;;;21.50;10.77;;;;;;;5.32;92.75;94125.28;5083536;28;20547;-35
2022/12/03 02:35:24;;;;;;;14.75;8.52;;;;;;;5.25;92.68;94117.53;5059638;28;20108;-34
2022/12/03 02:37:53;;;;;;;15.18;9.35;;;;;;;5.20;93.16;94115.53;5083814;28;20020;-34
2022/12/03 02:40:21;;;;;;;19.67;11.93;;;;;;;5.16;93.16;94098.63;5056771;28;20053;-35
2022/12/03 02:42:48;;;;;;;15.45;9.55;;;;;;;5.22;93.27;94109.56;5042884;28;20024;-35
2022/12/03 02:45:16;;;;;;;16.05;10.25;;;;;;;5.29;93.17;94103.59;5078828;28;20096;-35
2022/12/03 02:47:47;;;;;;;15.93;10.48;;;;;;;5.30;92.97;94110.59;5088651;28;20024;-35
2022/12/03 02:50:14;;;;;;;15.07;9.77;;;;;;;5.47;92.36;94116.03;5079684;28;20056;-35
2022/12/03 02:52:42;;;;;;;18.05;10.10;;;;;;;5.38;92.12;94117.78;5067182;28;20028;-35
2022/12/03 02:55:08;;;;;;;17.45;10.18;;;;;;;5.38;92.46;94106.84;5081256;28;20475;-35
2022/12/03 02:57:35;;;;;;;18.05;10.82;;;;;;;5.41;91.96;94110.56;5084875;28;20023;-35
2022/12/03 03:00:00;;;;;;;20.38;11.63;;;;;;;5.46;92.20;94109.09;5069574;28;20028;-34
2022/12/03 03:02:27;;;;;;;17.50;10.80;;;;;;;5.57;91.68;94109.78;5086007;28;20488;-35
2022/12/03 03:04:54;;;;;;;18.13;11.80;;;;;;;5.49;91.76;94111.56;5080724;28;20579;-35
2022/12/03 03:07:19;;;;;;;19.70;11.90;;;;;;;5.60;91.58;94108.81;5069438;28;20016;-35
2022/12/03 03:09:45;;;;;;;17.08;10.20;;;;;;;5.71;90.93;94108.03;5088010;28;20545;-35
2022/12/03 03:12:10;;;;;;;15.65;9.55;;;;;;;5.72;90.57;94104.03;5088679;28;20020;-35
2022/12/03 03:14:36;;;;;;;19.05;10.38;;;;;;;5.56;90.48;94097.38;5085978;28;20029;-35
2022/12/03 03:17:02;;;;;;;16.02;10.18;;;;;;;5.53;90.92;94092.88;5090536;28;20024;-35
2022/12/03 03:19:28;;;;;;;15.30;9.88;;;;;;;5.64;90.61;94103.06;5080962;28;20037;-35
2022/12/03 03:21:54;;;;;;;16.40;10.75;;;;;;;5.54;90.54;94107.31;5074222;28;20035;-35
2022/12/03 03:24:20;;;;;;;17.10;9.85;;;;;;;5.63;90.22;94107.78;5084368;28;20024;-35
2022/12/03 03:26:47;;;;;;;19.85;9.98;;;;;;;5.66;90.13;94106.03;5070737;28;20024;-35
2022/12/03 03:29:12;;;;;;;19.08;11.15;;;;;;;5.71;89.93;94108.78;5063669;28;20419;-35
2022/12/03 03:31:38;;;;;;;18.98;11.73;;;;;;;5.72;90.08;94110.25;5070776;28;20020;-35
2022/12/03 03:34:03;;;;;;;21.58;10.68;;;;;;;5.73;89.80;94106.28;5092681;28;20009;-35
2022/12/03 03:36:30;;;;;;;13.93;9.27;;;;;;;5.81;88.53;94114.72;5071687;28;20027;-35
2022/12/03 03:38:56;;;;;;;15.82;10.35;;;;;;;5.79;88.21;94117.97;5066072;28;20024;-35
2022/12/03 03:41:22;;;;;;;16.27;9.27;;;;;;;5.80;88.29;94114.00;5070521;28;20081;-35
2022/12/03 03:43:49;;;;;;;16.38;9.98;;;;;;;5.62;89.04;94114.53;5074161;28;20509;-35
2022/12/03 03:46:14;;;;;;;18.85;10.52;;;;;;;5.69;88.88;94116.75;5085011;28;20020;-35
2022/12/03 03:48:40;;;;;;;20.23;11.05;;;;;;;5.66;88.96;94115.00;5083253;28;20024;-35
2022/12/03 03:51:07;;;;;;;15.73;9.90;;;;;;;5.57;89.11;94096.09;5068741;28;20518;-35
2022/12/03 03:53:33;;;;;;;16.20;10.57;;;;;;;5.62;89.21;94111.78;5090138;28;20019;-35
2022/12/03 03:55:59;;;;;;;16.70;10.23;;;;;;;5.66;89.47;94114.25;5089004;28;20020;-35
2022/12/03 03:58:24;;;;;;;15.50;9.65;;;;;;;5.71;89.29;94125.22;5080183;28;20411;-35
2022/12/03 04:00:50;;;;;;;17.75;10.07;;;;;;;5.71;88.85;94122.50;5073330;28;20145;-35
2022/12/03 04:03:16;;;;;;;14.82;10.43;;;;;;;5.68;88.74;94117.25;5072763;28;20095;-35
2022/12/03 04:05:41;;;;;;;16.60;11.00;;;;;;;5.69;88.68;94114.03;5079884;28;20462;-35
2022/12/03 04:08:07;;;;;;;17.02;11.18;;;;;;;5.74;88.48;94110.50;5089594;28;20639;-35
2022/12/03 04:13:16;;;;;;;18.05;10.25;;;;;;;5.75;88.18;94112.00;5088829;28;20038;-35
2022/12/03 04:15:42;;;;;;;19.42;10.77;;;;;;;5.61;88.42;94117.78;5089793;28;20024;-35
2022/12/03 04:22:38;;;;;;;19.80;12.25;;;;;;;5.64;88.89;94117.50;5090695;28;20097;-34
2022/12/03 04:23:36;;;;;;;20.23;10.13;;;;;;;5.62;89.18;94120.00;5089084;28;20024;-35
2022/12/03 04:28:49;;;;;;;13.15;9.40;;;;;;;5.72;87.73;94128.69;5086385;28;20073;-35
2022/12/03 04:36:42;;;;;;;21.15;11.73;;;;;;;5.44;88.92;94136.94;5090075;28;20070;-35
2022/12/03 04:39:08;;;;;;;20.15;12.45;;;;;;;5.39;89.93;94143.19;5081048;28;20047;-35
2022/12/03 04:41:33;;;;;;;17.65;11.52;;;;;;;5.34;90.51;94144.69;5086500;28;20493;-35
2022/12/03 04:46:42;;;;;;;16.90;10.60;;;;;;;5.45;90.48;94149.41;5087363;28;20031;-35
2022/12/03 04:49:08;;;;;;;15.30;10.48;;;;;;;5.48;90.49;94156.59;5087270;28;20020;-35
2022/12/03 04:51:33;;;;;;;15.25;9.75;;;;;;;5.58;89.94;94162.59;5081546;28;20024;-35
2022/12/03 04:53:59;;;;;;;17.55;11.23;;;;;;;5.56;89.93;94160.34;5086003;28;20024;-35
2022/12/03 04:56:24;;;;;;;18.95;12.82;;;;;;;5.56;90.03;94165.09;5088549;28;20030;-35
2022/12/03 04:58:50;;;;;;;20.80;12.27;;;;;;;5.60;90.25;94171.06;5087051;28;20016;-35
2022/12/03 05:01:15;;;;;;;21.15;11.75;;;;;;;5.57;89.92;94167.31;5086039;28;20032;-35
2022/12/03 05:03:41;;;;;;;23.73;12.63;;;;;;;5.50;90.58;94172.56;5084553;28;20047;-35
2022/12/03 05:06:06;;;;;;;24.35;14.80;;;;;;;5.53;90.77;94168.81;5088360;28;20025;-35
2022/12/03 05:08:32;;;;;;;21.95;12.80;;;;;;;5.55;89.82;94172.53;5086822;28;20103;-35
2022/12/03 05:10:57;;;;;;;19.60;12.40;;;;;;;5.48;90.17;94175.06;5085260;28;20515;-35
2022/12/03 05:13:23;;;;;;;19.60;11.00;;;;;;;5.29;89.93;94167.31;5085469;28;20012;-35
2022/12/03 05:15:48;;;;;;;18.92;11.27;;;;;;;5.41;90.49;94176.28;5085416;28;20028;-35
2022/12/03 05:18:14;;;;;;;22.23;12.32;;;;;;;5.43;90.58;94179.28;5084625;28;20077;-35
2022/12/03 05:20:42;;;;;;;19.30;12.38;;;;;;;5.43;90.57;94178.53;5088040;28;20020;-35
2022/12/03 05:23:09;;;;;;;18.67;10.33;;;;;;;5.23;91.00;94174.03;5081860;28;20028;-35
2022/12/03 05:25:34;;;;;;;17.05;10.65;;;;;;;5.16;91.49;94169.03;5087751;28;20107;-34
2022/12/03 05:27:59;;;;;;;21.08;10.85;;;;;;;5.17;91.42;94171.31;5087116;28;20032;-34
2022/12/03 05:30:25;;;;;;;18.40;11.13;;;;;;;5.14;91.32;94157.84;5079948;28;20031;-35
2022/12/03 05:32:50;;;;;;;14.23;10.50;;;;;;;5.26;91.36;94171.03;5083689;28;20020;-35
2022/12/03 05:35:16;;;;;;;34.40;19.70;;;;;;;5.16;91.62;94163.56;5085531;28;20035;-35
2022/12/03 05:37:41;;;;;;;52.65;27.15;;;;;;;5.16;91.88;94166.31;5087371;28;20061;-34
2022/12/03 05:40:08;;;;;;;39.85;24.70;;;;;;;5.21;91.90;94166.31;5080636;28;20021;-34
2022/12/03 05:42:52;;;;;;;23.63;13.38;;;;;;;5.15;91.98;94145.66;5078033;28;20103;-34
2022/12/03 05:45:19;;;;;;;18.95;11.57;;;;;;;5.33;91.73;94169.81;5078329;28;20029;-34
2022/12/03 05:47:44;;;;;;;19.08;10.95;;;;;;;5.41;90.61;94168.09;5085465;28;20020;-34
2022/12/03 05:50:10;;;;;;;19.42;11.90;;;;;;;5.34;90.65;94171.31;5075670;28;20026;-35
2022/12/03 05:52:35;;;;;;;21.73;12.40;;;;;;;5.30;90.68;94173.56;5080889;28;20047;-34
2022/12/03 05:55:01;;;;;;;18.48;11.52;;;;;;;5.28;91.07;94167.81;5082726;28;20469;-35
2022/12/03 05:57:26;;;;;;;19.63;12.43;;;;;;;5.37;90.96;94173.78;5082939;28;20031;-35
2022/12/03 05:59:52;;;;;;;22.30;12.63;;;;;;;5.41;90.67;94181.03;5080176;28;20496;-34
2022/12/03 06:02:17;;;;;;;26.98;15.90;;;;;;;5.46;89.20;94181.00;5083556;28;20389;-34
2022/12/03 06:04:43;;;;;;;18.80;12.30;;;;;;;5.35;90.00;94184.50;5080875;28;20081;-35
2022/12/03 06:07:08;;;;;;;19.27;10.80;;;;;;;5.33;90.20;94186.97;5077975;28;20082;-35
2022/12/03 06:09:33;;;;;;;18.25;10.93;;;;;;;5.27;90.53;94191.72;5080073;28;20040;-34
2022/12/03 06:11:59;;;;;;;20.88;12.68;;;;;;;5.21;90.39;94179.25;5077016;28;20020;-35
2022/12/03 06:14:25;;;;;;;22.00;14.60;;;;;;;5.39;89.79;94204.16;5084030;28;20020;-35
2022/12/03 06:16:50;;;;;;;21.15;14.40;;;;;;;5.47;89.11;94206.41;5077976;28;20028;-34
2022/12/03 06:19:16;;;;;;;18.65;12.77;;;;;;;5.38;88.94;94212.88;5067872;28;20044;-35
2022/12/03 06:21:41;;;;;;;14.73;9.32;;;;;;;5.31;88.97;94216.09;5084875;28;20416;-35
2022/12/03 06:24:07;;;;;;;22.23;12.57;;;;;;;5.22;89.07;94213.59;5083624;28;20036;-35
2022/12/03 06:26:32;;;;;;;19.23;10.73;;;;;;;5.25;89.64;94202.41;5085318;28;20024;-35
2022/12/03 06:28:58;;;;;;;18.63;11.38;;;;;;;5.22;90.04;94210.84;5087893;28;20023;-35
2022/12/03 06:31:23;;;;;;;19.10;10.82;;;;;;;5.15;90.74;94205.88;5085112;28;20024;-35
2022/12/03 06:33:49;;;;;;;17.63;11.02;;;;;;;5.24;90.33;94202.91;5081573;28;20024;-35
2022/12/03 06:36:14;;;;;;;19.52;10.95;;;;;;;5.31;90.02;94207.88;5088983;28;20586;-35
2022/12/03 06:38:40;;;;;;;21.25;12.05;;;;;;;5.34;90.26;94210.41;5084771;28;20024;-35
2022/12/03 06:41:06;;;;;;;18.67;13.55;;;;;;;5.40;89.86;94210.38;5091282;28;20028;-35
2022/12/03 06:43:31;;;;;;;22.23;15.65;;;;;;;5.51;89.08;94218.63;5092757;28;20549;-35
2022/12/03 06:45:57;;;;;;;18.60;12.57;;;;;;;5.60;89.03;94221.13;5085968;28;20085;-34
2022/12/03 06:48:22;;;;;;;22.70;13.05;;;;;;;5.69;89.24;94226.34;5092032;28;20408;-35
2022/12/03 06:50:48;;;;;;;19.50;12.80;;;;;;;5.78;89.05;94217.13;5083626;28;20024;-35
2022/12/03 06:53:13;;;;;;;25.15;14.63;;;;;;;5.86;88.17;94213.41;5093710;28;20458;-35
2022/12/03 06:55:39;;;;;;;22.70;12.73;;;;;;;5.97;88.11;94218.88;5090917;28;20032;-35
2022/12/03 06:58:05;;;;;;;19.90;13.95;;;;;;;6.05;87.06;94216.38;5092743;28;20393;-35
2022/12/03 07:00:30;;;;;;;17.55;11.00;;;;;;;6.11;85.92;94215.13;5088380;28;20026;-35
2022/12/03 07:02:55;;;;;;;20.75;13.10;;;;;;;6.12;85.92;94215.88;5089653;28;20032;-34
2022/12/03 07:05:21;;;;;;;16.05;10.25;;;;;;;6.11;85.54;94222.59;5088334;28;20028;-35
2022/12/03 07:07:51;;;;;;;15.00;9.70;;;;;;;5.97;86.04;94224.38;5090962;28;20027;-34
2022/12/03 07:10:19;;;;;;;14.50;9.25;;;;;;;6.11;85.27;94220.59;5088966;28;20016;-34
2022/12/03 07:12:44;;;;;;;13.53;8.40;;;;;;;5.88;84.94;94205.44;5082895;28;20055;-34
2022/12/03 07:15:10;;;;;;;13.40;7.82;;;;;;;5.93;85.24;94218.38;5082452;28;20056;-34
2022/12/03 07:17:35;;;;;;;13.77;9.55;;;;;;;5.94;85.81;94228.09;5086421;28;20488;-35
2022/12/03 07:20:02;;;;;;;14.95;9.55;;;;;;;5.89;86.33;94225.38;5082751;28;20044;-34
2022/12/03 07:22:28;;;;;;;14.77;10.05;;;;;;;5.86;87.12;94221.63;5088333;28;20059;-34
2022/12/03 07:24:54;;;;;;;12.55;8.10;;;;;;;5.90;86.96;94216.66;5091938;28;20508;-34
2022/12/03 07:27:19;;;;;;;12.98;8.15;;;;;;;5.97;86.87;94218.88;5086192;28;20027;-34
2022/12/03 07:29:45;;;;;;;15.57;8.00;;;;;;;6.00;86.26;94217.13;5068616;28;20026;-34
2022/12/03 07:32:10;;;;;;;11.90;7.47;;;;;;;6.03;85.69;94222.38;5084900;28;20027;-34
2022/12/03 07:34:36;;;;;;;11.10;8.40;;;;;;;6.07;85.84;94224.84;5083111;28;20028;-34
2022/12/03 07:37:01;;;;;;;10.70;8.13;;;;;;;6.07;86.04;94225.59;5087416;28;20028;-34
2022/12/03 07:39:27;;;;;;;11.40;7.97;;;;;;;6.05;86.14;94225.34;5089308;28;20079;-34
2022/12/03 07:41:52;;;;;;;9.43;7.07;;;;;;;6.09;84.78;94225.84;5091557;28;20031;-34
2022/12/03 07:44:18;;;;;;;10.45;7.25;;;;;;;5.98;85.56;94227.84;5090515;28;20165;-34
2022/12/03 07:46:43;;;;;;;11.60;8.50;;;;;;;5.94;86.04;94233.59;5082731;28;20063;-34
2022/12/03 07:49:09;;;;;;;15.43;9.32;;;;;;;5.91;86.48;94229.09;5087728;28;20448;-34
2022/12/03 07:51:34;;;;;;;11.82;7.78;;;;;;;5.96;86.77;94230.34;5083118;28;20021;-35
2022/12/03 07:54:00;;;;;;;10.90;6.82;;;;;;;5.95;86.79;94229.59;5069250;28;20024;-34
2022/12/03 07:56:25;;;;;;;8.98;7.65;;;;;;;5.99;86.43;94227.34;5084236;28;20035;-34
2022/12/03 07:58:50;;;;;;;13.45;6.85;;;;;;;6.03;85.33;94232.56;5080538;28;20024;-34
2022/12/03 08:01:16;;;;;;;10.13;5.95;;;;;;;6.02;85.97;94242.78;5083968;28;20036;-35
2022/12/03 08:03:41;;;;;;;9.20;5.97;;;;;;;6.11;85.00;94236.28;5085300;28;20073;-34
2022/12/03 08:06:08;;;;;;;8.60;5.80;;;;;;;6.14;84.44;94227.06;5086471;28;20024;-35
2022/12/03 08:08:33;;;;;;;8.30;5.10;;;;;;;6.09;84.21;94231.31;5064586;28;20051;-35
2022/12/03 08:11:00;;;;;;;7.25;6.10;;;;;;;5.99;85.08;94230.09;5082739;28;20062;-34
2022/12/03 08:13:26;;;;;;;6.88;4.80;;;;;;;6.00;85.23;94237.06;5084161;28;20027;-34
2022/12/03 08:15:52;;;;;;;9.55;5.60;;;;;;;6.03;85.62;94227.84;5085040;28;20028;-34
2022/12/03 08:18:20;;;;;;;7.05;5.28;;;;;;;5.99;85.93;94237.56;5062751;28;20077;-34
2022/12/03 08:20:48;;;;;;;8.30;5.70;;;;;;;6.07;85.52;94233.06;5079034;28;20131;-34
2022/12/03 08:23:19;;;;;;;14.30;5.57;;;;;;;6.06;85.96;94239.81;5077833;28;20029;-34
2022/12/03 08:25:45;;;;;;;7.45;5.13;;;;;;;6.18;85.01;94240.53;5086381;28;20035;-34
2022/12/03 08:28:15;;;;;;;7.63;5.85;;;;;;;6.21;84.61;94243.03;5083032;28;20044;-34
2022/12/03 08:30:42;;;;;;;7.75;5.97;;;;;;;6.25;84.85;94242.75;5078845;28;20036;-35
2022/12/03 08:33:21;;;;;;;9.82;6.38;;;;;;;6.25;84.65;94248.25;5080959;28;20036;-34
2022/12/03 08:35:49;;;;;;;7.68;5.75;;;;;;;6.35;84.75;94255.69;5085905;28;20028;-35
2022/12/03 08:38:15;;;;;;;8.90;6.38;;;;;;;6.34;84.51;94256.22;5083133;28;20467;-34
2022/12/03 08:40:43;;;;;;;7.05;5.28;;;;;;;6.29;84.32;94254.97;5089723;28;20032;-35
2022/12/03 08:43:23;;;;;;;9.23;6.07;;;;;;;6.01;84.83;94260.50;5069329;28;20034;-35
2022/12/03 08:45:53;;;;;;;7.85;5.72;;;;;;;5.90;85.39;94254.25;5083194;28;20043;-35
2022/12/03 08:48:26;;;;;;;9.52;6.05;;;;;;;6.03;85.50;94258.00;5086845;28;20028;-35
2022/12/03 08:50:54;;;;;;;7.75;5.75;;;;;;;6.04;85.25;94269.72;5087782;28;20039;-35
2022/12/03 08:53:27;;;;;;;8.07;5.45;;;;;;;5.99;85.64;94264.97;5084140;28;20425;-35
2022/12/03 08:56:18;;;;;;;10.05;5.63;;;;;;;5.95;86.08;94257.00;5085201;28;20050;-35
2022/12/03 08:58:47;;;;;;;9.05;5.20;;;;;;;6.04;85.13;94261.50;5083129;28;20039;-35
2022/12/03 09:01:12;;;;;;;7.50;5.90;;;;;;;6.03;85.25;94265.47;5070828;28;20115;-35
2022/12/03 09:03:45;;;;;;;8.18;5.65;;;;;;;6.07;83.94;94263.97;5087953;28;20073;-35
2022/12/03 09:06:10;;;;;;;10.20;5.72;;;;;;;5.89;85.15;94267.22;5070014;28;20577;-35
2022/12/03 09:08:36;;;;;;;6.72;5.57;;;;;;;6.02;85.38;94264.72;5082909;28;20020;-35
2022/12/03 09:11:01;;;;;;;13.85;5.97;;;;;;;6.08;85.61;94264.72;5082345;28;20044;-35
2022/12/03 09:13:27;;;;;;;8.75;5.53;;;;;;;6.09;85.20;94264.22;5081108;28;20052;-35
2022/12/03 09:15:52;;;;;;;6.35;5.22;;;;;;;6.24;84.36;94263.94;5082976;28;20020;-36
2022/12/03 09:18:18;;;;;;;11.23;7.65;;;;;;;6.25;83.35;94262.72;5078168;28;20123;-35
2022/12/03 09:20:43;;;;;;;16.63;14.25;;;;;;;6.13;83.82;94266.69;5081817;28;20506;-35
2022/12/03 09:23:09;;;;;;;15.85;12.98;;;;;;;6.00;84.81;94261.72;5076449;28;20019;-35
2022/12/03 09:25:34;;;;;;;7.55;6.03;;;;;;;6.04;84.78;94267.69;5078210;28;20081;-35
2022/12/03 09:28:00;;;;;;;10.30;6.38;;;;;;;5.99;85.29;94256.75;5078156;28;20024;-35
2022/12/03 09:30:25;;;;;;;8.38;6.32;;;;;;;6.15;85.33;94260.72;5082946;28;20024;-35
2022/12/03 09:32:50;;;;;;;8.32;6.28;;;;;;;6.18;84.66;94267.94;5084153;28;20039;-35
2022/12/03 09:35:16;;;;;;;9.00;5.40;;;;;;;6.18;84.12;94267.94;5082577;28;20031;-35
2022/12/03 09:37:42;;;;;;;6.15;4.32;;;;;;;6.11;83.31;94256.25;5087255;28;20450;-35
2022/12/03 09:40:08;;;;;;;7.25;4.93;;;;;;;6.08;84.23;94268.22;5083996;28;20031;-35
2022/12/03 09:42:34;;;;;;;7.32;5.15;;;;;;;6.08;83.90;94267.47;5065012;28;20056;-35
2022/12/03 09:45:01;;;;;;;7.82;4.85;;;;;;;6.03;83.79;94265.47;5079084;28;20024;-39
2022/12/03 09:47:28;;;;;;;5.10;4.47;;;;;;;6.09;82.86;94266.97;5078316;28;20055;-35
2022/12/03 09:49:54;;;;;;;6.95;4.90;;;;;;;6.01;82.80;94260.50;5065826;28;20016;-35
2022/12/03 09:52:26;;;;;;;6.38;4.95;;;;;;;6.07;83.32;94266.72;5081245;28;20052;-35
2022/12/03 09:54:51;;;;;;;7.10;5.35;;;;;;;6.16;83.07;94265.72;5081786;28;20027;-36
2022/12/03 09:57:17;;;;;;;7.05;4.00;;;;;;;6.16;83.06;94259.47;5082899;28;20073;-35
2022/12/03 09:59:43;;;;;;;5.93;4.13;;;;;;;6.15;81.75;94255.25;5063450;28;20203;-35
2022/12/03 10:02:19;;;;;;;6.43;4.30;;;;;;;6.05;82.17;94260.22;5086315;28;20377;-36
2022/12/03 10:04:45;;;;;;;10.88;4.60;;;;;;;6.00;82.87;94267.22;5076154;28;20082;-36
2022/12/03 10:07:10;;;;;;;6.75;4.75;;;;;;;5.94;83.39;94255.50;5080354;28;20511;-36
2022/12/03 10:09:36;;;;;;;9.27;5.35;;;;;;;6.06;84.11;94256.97;5080556;28;20020;-36
2022/12/03 10:12:01;;;;;;;7.05;4.53;;;;;;;5.88;83.55;94243.81;5062235;28;20585;-36
2022/12/03 10:14:27;;;;;;;10.70;5.35;;;;;;;5.90;84.76;94240.56;5079975;28;20043;-35
2022/12/03 10:16:53;;;;;;;6.70;5.50;;;;;;;5.91;85.76;94247.53;5075443;28;20039;-36
2022/12/03 10:19:22;;;;;;;7.43;5.45;;;;;;;6.06;85.25;94251.50;5054925;28;20045;-36
2022/12/03 10:22:03;;;;;;;9.88;5.13;;;;;;;6.11;84.77;94241.78;5017364;28;20067;-36
2022/12/03 10:24:32;;;;;;;5.22;4.70;;;;;;;6.19;84.44;94240.03;5060914;28;20024;-36
2022/12/03 10:27:00;;;;;;;12.38;4.93;;;;;;;6.28;82.07;94237.00;5052248;28;20064;-36
2022/12/03 10:29:34;;;;;;;7.70;5.22;;;;;;;6.24;82.55;94236.53;5055918;28;20055;-36
2022/12/03 10:32:04;;;;;;;5.97;4.75;;;;;;;6.27;83.01;94229.28;5060006;28;20033;-36
2022/12/03 10:34:39;;;;;;;10.13;6.68;;;;;;;6.29;82.96;94233.03;5061234;28;20124;-36
2022/12/03 10:37:15;;;;;;;7.55;4.80;;;;;;;6.38;82.24;94223.78;5058791;28;20081;-36
2022/12/03 10:39:56;;;;;;;6.82;5.35;;;;;;;6.40;81.91;94218.53;5058843;28;20086;-36
2022/12/03 10:42:22;;;;;;;8.77;6.18;;;;;;;6.35;82.47;94219.28;5066052;28;20060;-36
2022/12/03 10:44:52;;;;;;;5.45;3.88;;;;;;;6.35;81.29;94211.06;5060234;28;20028;-36
2022/12/03 10:47:19;;;;;;;6.78;4.65;;;;;;;6.42;81.21;94210.56;5060291;28;20095;-36
2022/12/03 10:50:00;;;;;;;7.80;5.43;;;;;;;6.31;82.46;94214.09;5059656;28;20032;-36
2022/12/03 10:52:25;;;;;;;5.22;3.85;;;;;;;6.32;81.62;94210.09;5057607;28;20071;-36
2022/12/03 10:54:51;;;;;;;8.13;5.38;;;;;;;6.35;82.69;94214.56;5051693;28;20048;-36
2022/12/03 10:57:17;;;;;;;6.82;4.45;;;;;;;6.44;83.55;94202.56;5058083;28;20623;-36
2022/12/03 10:59:42;;;;;;;11.23;5.28;;;;;;;6.60;82.46;94207.25;5061789;28;20632;-36
2022/12/03 11:02:22;;;;;;;6.72;5.32;;;;;;;6.64;82.26;94194.03;5054459;28;20029;-36
2022/12/03 11:04:48;;;;;;;7.82;5.88;;;;;;;6.60;81.81;94197.03;5059334;28;20116;-36
2022/12/03 11:07:15;;;;;;;9.90;6.57;;;;;;;6.60;81.16;94204.53;5063346;28;20068;-35
2022/12/03 11:09:46;;;;;;;10.20;7.25;;;;;;;6.69;81.63;94196.00;5056457;28;20569;-36
2022/12/03 11:12:26;;;;;;;10.02;6.75;;;;;;;6.76;81.27;94201.69;5057403;28;20117;-36
2022/12/03 11:14:56;;;;;;;4.85;3.97;;;;;;;6.78;79.28;94198.44;5062226;28;20056;-36
2022/12/03 11:17:46;;;;;;;5.43;4.20;;;;;;;6.68;79.59;94200.75;5064794;28;20036;-36
2022/12/03 11:20:23;;;;;;;10.27;5.07;;;;;;;6.77;79.90;94205.94;5081140;28;20056;-36
2022/12/03 11:22:56;;;;;;;6.75;5.07;;;;;;;6.70;79.99;94200.97;5087157;28;20031;-36
2022/12/03 11:25:24;;;;;;;6.97;4.95;;;;;;;6.64;80.68;94202.25;5086408;28;20024;-36
2022/12/03 11:28:11;;;;;;;7.18;5.60;;;;;;;6.70;79.79;94203.72;5081491;28;20055;-36
2022/12/03 11:30:49;;;;;;;5.95;4.70;;;;;;;6.81;79.74;94206.44;5089255;28;20043;-36
2022/12/03 11:33:25;;;;;;;4.88;4.38;;;;;;;6.79;79.18;94208.19;5079142;28;20031;-35
2022/12/03 11:36:03;;;;;;;5.05;3.75;;;;;;;6.83;78.33;94209.41;5078210;28;20085;-36
2022/12/03 11:38:39;;;;;;;5.05;4.03;;;;;;;6.81;78.78;94211.16;5081115;28;20036;-36
2022/12/03 11:41:08;;;;;;;5.45;4.35;;;;;;;6.94;78.62;94207.84;5081886;28;20127;-36
2022/12/03 11:43:55;;;;;;;3.47;2.97;;;;;;;7.04;77.72;94207.06;5079542;28;20100;-36
2022/12/03 11:46:39;;;;;;;4.97;3.70;;;;;;;6.91;78.11;94206.88;5078101;28;20450;-36
2022/12/03 11:49:25;;;;;;;6.15;4.70;;;;;;;6.67;78.12;94201.97;5064645;28;20021;-36
2022/12/03 11:51:50;;;;;;;4.78;3.90;;;;;;;6.83;78.16;94200.44;5060802;28;20060;-35
2022/12/03 11:54:18;;;;;;;4.70;4.03;;;;;;;6.79;78.17;94192.47;5080731;28;20097;-36
2022/12/03 11:56:46;;;;;;;4.82;3.60;;;;;;;6.86;78.31;94188.44;5070899;28;20031;-35